Millenium Air

Millenium Air Since 1998



 METAR AND TAF INFORMATION
METAR FOR UGTB
ADDS - METARS form results

(0806 UTC 29 January 2022)
Data provider http://aviationweather.gov/metar/data/
 
METAR text: UGTB 290800Z 30014KT CAVOK 03/M07 Q1022 NOSIG
Conditions at: UGTB (TBILISI/NOVO-AL , GE) observed 0800 UTC 29 January 2022
Temperature: 3.0°C (37°F)
Dewpoint: -7.0°C (19°F) [RH = 48%]
Pressure (altimeter): 30.18 inches Hg (1022.0 mb)
Winds: from the WNW (300 degrees) at 16 MPH (14 knots; 7.2 m/s)
Visibility: 6 or more miles (10+ km)
Ceiling: ceiling and visibility are OK
Clouds: unknown
Weather: no significant weather observed at this time

METAR text: UGTB 290730Z 31016KT CAVOK 02/M08 Q1022 NOSIG
Conditions at: UGTB (TBILISI/NOVO-AL , GE) observed 0730 UTC 29 January 2022
Temperature: 2.0°C (36°F)
Dewpoint: -8.0°C (18°F) [RH = 47%]
Pressure (altimeter): 30.18 inches Hg (1022.0 mb)
Winds: from the NW (310 degrees) at 18 MPH (16 knots; 8.2 m/s)
Visibility: 6 or more miles (10+ km)
Ceiling: ceiling and visibility are OK
Clouds: unknown
Weather: no significant weather observed at this time

Forecast for: UGTB (TBILISI/NOVO-AL , GE)
Text: TAF UGTB 290500Z 2906/3006 31013KT CAVOK TX07/2911Z TNM04/3002Z
Forecast period: 0600 UTC 29 January 2022 to 0600 UTC 30 January 2022
Forecast type: FROM: standard forecast or significant change
Winds: from the NW (310 degrees) at 15 MPH (13 knots; 6.7 m/s)
Visibility: 6 or more miles (10+ km)
Ceiling: unknown
Clouds: missing
Weather: no significant weather forecast for this period
Text: TEMPO 2909/2914 32023KT
Forecast period: 0900 to 1400 UTC 29 January 2022
Forecast type: TEMPORARY: The following changes expected for less than half the time period
Winds: from the NW (320 degrees) at 26 MPH (23 knots; 11.8 m/s)
Visibility: missing
Ceiling: unknown
Clouds: missing
Weather: no significant weather forecast for this period

 AIRPORT MAP

 RUNWAY INFORMATION
Runway 13L Runway length 8202 ft Runway width 196 ft
Runway elevation 1621 ft Runway displaced threshold 0 ft Runway heading 133
Runway 31R Runway length 8202 ft Runway width 196 ft
Runway elevation 1572 ft Runway displaced threshold 0 ft Runway heading 313
Runway 13R Runway length 9843 ft Runway width 147 ft
Runway elevation 1624 ft Runway displaced threshold 0 ft Runway heading 136
Runway 31L Runway length 9843 ft Runway width 147 ft
Runway elevation 1558 ft Runway displaced threshold 0 ft Runway heading 316

 AIRPORT FREQUENCIES
Type APP Name APP Frequency 127.2 MHZ
Type ATIS Name ATIS Frequency 132.8 MHZ
Type GND Name GND Frequency 119 MHZ
Type TWR Name TWR Frequency 128 MHZ

 AIRPORT NEAR NAVIGATION AIDS